sensor_id;sensor_type;location;lat;lon;timestamp;pressure;altitude;pressure_sealevel;temperature;humidity
2000;BME280;1001;48.87406500;9.59633600;2023-04-06T00:00:13;95231.66;;;2.65;57.92
2000;BME280;1001;48.87406500;9.59633600;2023-04-06T00:02:42;95234.22;;;2.65;57.51
2000;BME280;1001;48.87406500;9.59633600;2023-04-06T00:05:09;95230.41;;;2.61;57.99
2000;BME280;1001;48.87406500;9.59633600;2023-04-06T00:07:36;95225.88;;;2.63;57.52
2000;BME280;1001;48.87406500;9.59633600;2023-04-06T00:10:03;95228.28;;;2.65;58.22
2000;BME280;1001;48.87406500;9.59633600;2023-04-06T00:12:30;95223.75;;;2.67;57.68
2000;BME280;1001;48.87406500;9.59633600;2023-04-06T00:14:57;95223.47;;;2.62;57.54
2000;BME280;1001;48.87406500;9.59633600;2023-04-06T00:17:23;95228.38;;;2.57;58.15
2000;BME280;1001;48.87406500;9.59633600;2023-04-06T00:19:51;95220.16;;;2.53;58.68
2000;BME280;1001;48.87406500;9.59633600;2023-04-06T00:22:18;95216.63;;;2.54;57.99
2000;BME280;1001;48.87406500;9.59633600;2023-04-06T00:24:45;95220.69;;;2.49;58.45
2000;BME280;1001;48.87406500;9.59633600;2023-04-06T00:27:12;95221.84;;;2.46;58.51
2000;BME280;1001;48.87406500;9.59633600;2023-04-06T00:29:39;95215.97;;;2.38;58.92
2000;BME280;1001;48.87406500;9.59633600;2023-04-06T00:32:06;95209.19;;;2.37;59.03
2000;BME280;1001;48.87406500;9.59633600;2023-04-06T00:34:32;95212.28;;;2.32;59.29
2000;BME280;1001;48.87406500;9.59633600;2023-04-06T00:37:00;95210.97;;;2.22;59.90
2000;BME280;1001;48.87406500;9.59633600;2023-04-06T00:39:27;95217.38;;;2.26;59.61
2000;BME280;1001;48.87406500;9.59633600;2023-04-06T00:41:54;95206.34;;;2.32;59.10
2000;BME280;1001;48.87406500;9.59633600;2023-04-06T00:44:22;95209.91;;;2.31;58.95
2000;BME280;1001;48.87406500;9.59633600;2023-04-06T00:46:49;95203.31;;;2.28;59.46
2000;BME280;1001;48.87406500;9.59633600;2023-04-06T00:49:15;95199.78;;;2.29;59.27
2000;BME280;1001;48.87406500;9.59633600;2023-04-06T00:51:42;95196.19;;;2.30;59.19
2000;BME280;1001;48.87406500;9.59633600;2023-04-06T00:54:10;95193.09;;;2.35;59.43
2000;BME280;1001;48.87406500;9.59633600;2023-04-06T00:56:37;95202.09;;;2.39;59.07
2000;BME280;1001;48.87406500;9.59633600;2023-04-06T00:59:03;95203.06;;;2.38;58.55
2000;BME280;1001;48.87406500;9.59633600;2023-04-06T01:01:30;95199.06;;;2.35;58.88
2000;BME280;1001;48.87406500;9.59633600;2023-04-06T01:03:58;95200.47;;;2.38;58.81
2000;BME280;1001;48.87406500;9.59633600;2023-04-06T01:06:24;95194.16;;;2.40;58.72
2000;BME280;1001;48.87406500;9.59633600;2023-04-06T01:08:51;95195.78;;;2.41;58.42
2000;BME280;1001;48.87406500;9.59633600;2023-04-06T01:11:19;95194.97;;;2.41;58.85
2000;BME280;1001;48.87406500;9.59633600;2023-04-06T01:13:46;95196.66;;;2.34;59.04
2000;BME280;1001;48.87406500;9.59633600;2023-04-06T01:16:13;95194.47;;;2.23;59.28
2000;BME280;1001;48.87406500;9.59633600;2023-04-06T01:18:40;95188.44;;;2.16;60.38
2000;BME280;1001;48.87406500;9.59633600;2023-04-06T01:21:07;95189.22;;;2.16;59.75
2000;BME280;1001;48.87406500;9.59633600;2023-04-06T01:23:36;95179.53;;;2.18;59.86
2000;BME280;1001;48.87406500;9.59633600;2023-04-06T01:26:03;95187.13;;;2.20;59.94
2000;BME280;1001;48.87406500;9.59633600;2023-04-06T01:28:30;95176.63;;;2.21;59.58
2000;BME280;1001;48.87406500;9.59633600;2023-04-06T01:30:57;95183.22;;;2.24;59.38
2000;BME280;1001;48.87406500;9.59633600;2023-04-06T01:33:23;95173.50;;;2.26;59.14
2000;BME280;1001;48.87406500;9.59633600;2023-04-06T01:35:50;95175.28;;;2.25;59.10
2000;BME280;1001;48.87406500;9.59633600;2023-04-06T01:38:17;95174.75;;;2.30;58.92
2000;BME280;1001;48.87406500;9.59633600;2023-04-06T01:40:44;95164.81;;;2.27;59.38
2000;BME280;1001;48.87406500;9.59633600;2023-04-06T01:43:11;95163.47;;;2.31;59.12
2000;BME280;1001;48.87406500;9.59633600;2023-04-06T01:45:38;95168.97;;;2.28;58.52
2000;BME280;1001;48.87406500;9.59633600;2023-04-06T01:48:05;95169.88;;;2.35;58.83
2000;BME280;1001;48.87406500;9.59633600;2023-04-06T01:50:32;95165.69;;;2.34;58.59
2000;BME280;1001;48.87406500;9.59633600;2023-04-06T01:52:58;95165.25;;;2.30;58.92
2000;BME280;1001;48.87406500;9.59633600;2023-04-06T01:55:25;95164.63;;;2.28;58.82
2000;BME280;1001;48.87406500;9.59633600;2023-04-06T01:57:53;95160.63;;;2.26;58.22
2000;BME280;1001;48.87406500;9.59633600;2023-04-06T02:00:20;95159.03;;;2.25;59.23
2000;BME280;1001;48.87406500;9.59633600;2023-04-06T02:02:47;95151.63;;;2.22;59.29
2000;BME280;1001;48.87406500;9.59633600;2023-04-06T02:05:14;95156.50;;;2.17;59.08
2000;BME280;1001;48.87406500;9.59633600;2023-04-06T02:07:40;95157.47;;;2.16;59.09
2000;BME280;1001;48.87406500;9.59633600;2023-04-06T02:10:11;95162.47;;;2.17;59.52
2000;BME280;1001;48.87406500;9.59633600;2023-04-06T02:12:38;95164.25;;;2.17;59.32
2000;BME280;1001;48.87406500;9.59633600;2023-04-06T02:15:07;95163.78;;;2.13;59.59
2000;BME280;1001;48.87406500;9.59633600;2023-04-06T02:17:34;95160.25;;;2.14;58.98
2000;BME280;1001;48.87406500;9.59633600;2023-04-06T02:20:01;95152.06;;;2.11;59.49
2000;BME280;1001;48.87406500;9.59633600;2023-04-06T02:22:27;95156.56;;;2.08;59.50
2000;BME280;1001;48.87406500;9.59633600;2023-04-06T02:24:54;95155.16;;;2.06;59.75
2000;BME280;1001;48.87406500;9.59633600;2023-04-06T02:27:21;95152.13;;;2.02;59.81
2000;BME280;1001;48.87406500;9.59633600;2023-04-06T02:29:47;95147.41;;;2.06;59.70
2000;BME280;1001;48.87406500;9.59633600;2023-04-06T02:32:16;95150.19;;;2.04;59.86
2000;BME280;1001;48.87406500;9.59633600;2023-04-06T02:34:42;95148.69;;;2.10;59.37
2000;BME280;1001;48.87406500;9.59633600;2023-04-06T02:37:09;95158.63;;;2.13;59.28
2000;BME280;1001;48.87406500;9.59633600;2023-04-06T02:39:35;95148.69;;;2.10;59.59
2000;BME280;1001;48.87406500;9.59633600;2023-04-06T02:42:02;95143.53;;;2.10;59.05
2000;BME280;1001;48.87406500;9.59633600;2023-04-06T02:44:29;95151.25;;;2.10;58.67
2000;BME280;1001;48.87406500;9.59633600;2023-04-06T02:46:55;95150.44;;;2.10;59.42
2000;BME280;1001;48.87406500;9.59633600;2023-04-06T02:49:23;95144.84;;;2.06;59.06
2000;BME280;1001;48.87406500;9.59633600;2023-04-06T02:51:50;95144.41;;;2.02;60.16
2000;BME280;1001;48.87406500;9.59633600;2023-04-06T02:54:17;95145.00;;;2.04;59.63
2000;BME280;1001;48.87406500;9.59633600;2023-04-06T02:56:43;95137.75;;;2.08;59.31
2000;BME280;1001;48.87406500;9.59633600;2023-04-06T02:59:10;95143.97;;;2.14;59.09
2000;BME280;1001;48.87406500;9.59633600;2023-04-06T03:01:37;95128.31;;;2.15;59.12
2000;BME280;1001;48.87406500;9.59633600;2023-04-06T03:04:03;95136.06;;;2.15;58.67
2000;BME280;1001;48.87406500;9.59633600;2023-04-06T03:06:31;95128.41;;;2.22;58.23
2000;BME280;1001;48.87406500;9.59633600;2023-04-06T03:08:58;95123.25;;;2.22;57.77
2000;BME280;1001;48.87406500;9.59633600;2023-04-06T03:11:25;95134.75;;;2.34;57.40
2000;BME280;1001;48.87406500;9.59633600;2023-04-06T03:13:52;95131.72;;;2.45;57.15
2000;BME280;1001;48.87406500;9.59633600;2023-04-06T03:16:18;95133.94;;;2.48;57.13
2000;BME280;1001;48.87406500;9.59633600;2023-04-06T03:18:45;95137.06;;;2.43;56.71
2000;BME280;1001;48.87406500;9.59633600;2023-04-06T03:21:12;95133.69;;;2.43;57.04
2000;BME280;1001;48.87406500;9.59633600;2023-04-06T03:23:41;95139.72;;;2.50;56.99
2000;BME280;1001;48.87406500;9.59633600;2023-04-06T03:26:08;95131.00;;;2.51;57.15
2000;BME280;1001;48.87406500;9.59633600;2023-04-06T03:28:35;95138.91;;;2.49;56.52
2000;BME280;1001;48.87406500;9.59633600;2023-04-06T03:31:01;95131.72;;;2.45;56.95
2000;BME280;1001;48.87406500;9.59633600;2023-04-06T03:33:28;95140.06;;;2.47;56.81
2000;BME280;1001;48.87406500;9.59633600;2023-04-06T03:35:56;95143.00;;;2.44;57.11
2000;BME280;1001;48.87406500;9.59633600;2023-04-06T03:38:23;95146.56;;;2.43;57.19
2000;BME280;1001;48.87406500;9.59633600;2023-04-06T03:40:51;95142.03;;;2.45;57.47
2000;BME280;1001;48.87406500;9.59633600;2023-04-06T03:43:18;95147.38;;;2.43;57.26
2000;BME280;1001;48.87406500;9.59633600;2023-04-06T03:45:45;95137.94;;;2.36;57.02
2000;BME280;1001;48.87406500;9.59633600;2023-04-06T03:48:11;95152.97;;;2.32;57.43
2000;BME280;1001;48.87406500;9.59633600;2023-04-06T03:50:38;95146.50;;;2.36;57.57
2000;BME280;1001;48.87406500;9.59633600;2023-04-06T03:53:04;95144.34;;;2.40;57.19
2000;BME280;1001;48.87406500;9.59633600;2023-04-06T03:55:31;95144.34;;;2.40;57.25
2000;BME280;1001;48.87406500;9.59633600;2023-04-06T03:57:59;95148.63;;;2.47;56.63
2000;BME280;1001;48.87406500;9.59633600;2023-04-06T04:00:26;95148.16;;;2.44;57.04
2000;BME280;1001;48.87406500;9.59633600;2023-04-06T04:02:53;95152.69;;;2.42;57.21
2000;BME280;1001;48.87406500;9.59633600;2023-04-06T04:05:20;95142.22;;;2.43;56.64
2000;BME280;1001;48.87406500;9.59633600;2023-04-06T04:07:50;95153.59;;;2.49;57.42
2000;BME280;1001;48.87406500;9.59633600;2023-04-06T04:10:16;95148.28;;;2.50;57.29
2000;BME280;1001;48.87406500;9.59633600;2023-04-06T04:12:43;95155.03;;;2.51;57.37
2000;BME280;1001;48.87406500;9.59633600;2023-04-06T04:15:11;95156.97;;;2.49;57.43
2000;BME280;1001;48.87406500;9.59633600;2023-04-06T04:17:38;95150.66;;;2.52;57.11
2000;BME280;1001;48.87406500;9.59633600;2023-04-06T04:20:06;95157.25;;;2.54;57.06
2000;BME280;1001;48.87406500;9.59633600;2023-04-06T04:22:33;95148.81;;;2.46;56.94
2000;BME280;1001;48.87406500;9.59633600;2023-04-06T04:24:59;95155.75;;;2.45;57.19
2000;BME280;1001;48.87406500;9.59633600;2023-04-06T04:27:26;95160.91;;;2.45;57.42
2000;BME280;1001;48.87406500;9.59633600;2023-04-06T04:29:53;95150.94;;;2.42;57.19
2000;BME280;1001;48.87406500;9.59633600;2023-04-06T04:32:21;95155.47;;;2.40;57.54
2000;BME280;1001;48.87406500;9.59633600;2023-04-06T04:34:47;95162.75;;;2.37;57.95
2000;BME280;1001;48.87406500;9.59633600;2023-04-06T04:37:14;95158.94;;;2.33;58.31
2000;BME280;1001;48.87406500;9.59633600;2023-04-06T04:39:40;95154.38;;;2.35;57.64
2000;BME280;1001;48.87406500;9.59633600;2023-04-06T04:42:07;95163.41;;;2.39;57.50
2000;BME280;1001;48.87406500;9.59633600;2023-04-06T04:44:34;95154.50;;;2.41;57.46
2000;BME280;1001;48.87406500;9.59633600;2023-04-06T04:47:00;95151.13;;;2.41;57.37
2000;BME280;1001;48.87406500;9.59633600;2023-04-06T04:49:28;95157.88;;;2.42;57.48
2000;BME280;1001;48.87406500;9.59633600;2023-04-06T04:51:55;95167.03;;;2.44;57.41
2000;BME280;1001;48.87406500;9.59633600;2023-04-06T04:54:22;95159.00;;;2.39;57.70
2000;BME280;1001;48.87406500;9.59633600;2023-04-06T04:56:48;95153.69;;;2.41;57.39
2000;BME280;1001;48.87406500;9.59633600;2023-04-06T04:59:15;95170.06;;;2.48;57.53
2000;BME280;1001;48.87406500;9.59633600;2023-04-06T05:01:42;95166.16;;;2.52;57.74
2000;BME280;1001;48.87406500;9.59633600;2023-04-06T05:04:08;95168.03;;;2.43;58.13
2000;BME280;1001;48.87406500;9.59633600;2023-04-06T05:06:36;95172.91;;;2.38;58.14
2000;BME280;1001;48.87406500;9.59633600;2023-04-06T05:09:03;95174.34;;;2.41;57.92
2000;BME280;1001;48.87406500;9.59633600;2023-04-06T05:11:30;95172.56;;;2.41;57.78
2000;BME280;1001;48.87406500;9.59633600;2023-04-06T05:13:56;95178.16;;;2.45;57.93
2000;BME280;1001;48.87406500;9.59633600;2023-04-06T05:16:23;95182.34;;;2.46;58.11
2000;BME280;1001;48.87406500;9.59633600;2023-04-06T05:18:50;95174.84;;;2.51;57.76
2000;BME280;1001;48.87406500;9.59633600;2023-04-06T05:21:16;95185.03;;;2.52;57.83
2000;BME280;1001;48.87406500;9.59633600;2023-04-06T05:23:44;95182.25;;;2.54;57.94
2000;BME280;1001;48.87406500;9.59633600;2023-04-06T05:26:11;95185.91;;;2.59;57.26
2000;BME280;1001;48.87406500;9.59633600;2023-04-06T05:28:38;95185.19;;;2.65;57.78
2000;BME280;1001;48.87406500;9.59633600;2023-04-06T05:31:04;95189.47;;;2.58;57.85
2000;BME280;1001;48.87406500;9.59633600;2023-04-06T05:33:31;95194.19;;;2.69;58.33
2000;BME280;1001;48.87406500;9.59633600;2023-04-06T05:35:58;95191.78;;;2.68;58.06
2000;BME280;1001;48.87406500;9.59633600;2023-04-06T05:38:26;95194.19;;;2.69;57.72
2000;BME280;1001;48.87406500;9.59633600;2023-04-06T05:40:54;95199.38;;;2.69;58.94
2000;BME280;1001;48.87406500;9.59633600;2023-04-06T05:43:21;95199.44;;;2.76;59.48
2000;BME280;1001;48.87406500;9.59633600;2023-04-06T05:45:47;95195.72;;;2.79;58.48
2000;BME280;1001;48.87406500;9.59633600;2023-04-06T05:48:14;95202.84;;;2.77;58.61
2000;BME280;1001;48.87406500;9.59633600;2023-04-06T05:50:40;95192.78;;;2.67;60.43
2000;BME280;1001;48.87406500;9.59633600;2023-04-06T05:53:07;95200.41;;;2.75;59.43
2000;BME280;1001;48.87406500;9.59633600;2023-04-06T05:55:34;95198.38;;;2.85;61.33
2000;BME280;1001;48.87406500;9.59633600;2023-04-06T05:58:02;95209.94;;;2.89;61.33
2000;BME280;1001;48.87406500;9.59633600;2023-04-06T06:00:28;95208.44;;;2.95;62.07
2000;BME280;1001;48.87406500;9.59633600;2023-04-06T06:02:56;95204.22;;;2.94;62.48
2000;BME280;1001;48.87406500;9.59633600;2023-04-06T06:05:22;95198.91;;;2.95;61.38
2000;BME280;1001;48.87406500;9.59633600;2023-04-06T06:07:49;95214.56;;;3.08;61.09
2000;BME280;1001;48.87406500;9.59633600;2023-04-06T06:10:16;95221.75;;;3.13;62.24
2000;BME280;1001;48.87406500;9.59633600;2023-04-06T06:12:43;95219.44;;;3.18;60.64
2000;BME280;1001;48.87406500;9.59633600;2023-04-06T06:15:11;95216.31;;;3.22;60.08
2000;BME280;1001;48.87406500;9.59633600;2023-04-06T06:17:38;95229.16;;;3.30;60.28
2000;BME280;1001;48.87406500;9.59633600;2023-04-06T06:20:06;95219.25;;;3.34;60.09
2000;BME280;1001;48.87406500;9.59633600;2023-04-06T06:22:33;95221.63;;;3.50;59.76
2000;BME280;1001;48.87406500;9.59633600;2023-04-06T06:25:00;95222.66;;;3.56;59.29
2000;BME280;1001;48.87406500;9.59633600;2023-04-06T06:27:26;95230.66;;;3.75;60.16
2000;BME280;1001;48.87406500;9.59633600;2023-04-06T06:29:53;95231.56;;;3.89;60.04
2000;BME280;1001;48.87406500;9.59633600;2023-04-06T06:32:21;95231.72;;;4.02;59.47
2000;BME280;1001;48.87406500;9.59633600;2023-04-06T06:34:48;95231.41;;;4.11;58.36
2000;BME280;1001;48.87406500;9.59633600;2023-04-06T06:37:14;95229.56;;;4.33;56.50
2000;BME280;1001;48.87406500;9.59633600;2023-04-06T06:39:41;95226.28;;;4.73;57.48
2000;BME280;1001;48.87406500;9.59633600;2023-04-06T06:42:08;95230.34;;;4.82;56.37
2000;BME280;1001;48.87406500;9.59633600;2023-04-06T06:44:34;95230.34;;;4.82;55.95
2000;BME280;1001;48.87406500;9.59633600;2023-04-06T06:47:01;95231.94;;;4.83;55.93
2000;BME280;1001;48.87406500;9.59633600;2023-04-06T06:49:29;95234.69;;;5.10;55.02
2000;BME280;1001;48.87406500;9.59633600;2023-04-06T06:51:55;95234.31;;;5.19;55.10
2000;BME280;1001;48.87406500;9.59633600;2023-04-06T06:54:22;95232.34;;;5.21;54.41
2000;BME280;1001;48.87406500;9.59633600;2023-04-06T06:56:49;95241.53;;;5.30;55.04
2000;BME280;1001;48.87406500;9.59633600;2023-04-06T06:59:15;95237.63;;;5.41;52.90
2000;BME280;1001;48.87406500;9.59633600;2023-04-06T07:01:45;95236.91;;;5.73;54.03
2000;BME280;1001;48.87406500;9.59633600;2023-04-06T07:04:11;95231.94;;;5.78;52.98
2000;BME280;1001;48.87406500;9.59633600;2023-04-06T07:06:39;95235.00;;;5.95;53.34
2000;BME280;1001;48.87406500;9.59633600;2023-04-06T07:09:06;95238.03;;;5.98;51.16
2000;BME280;1001;48.87406500;9.59633600;2023-04-06T07:11:33;95243.44;;;6.10;52.80
2000;BME280;1001;48.87406500;9.59633600;2023-04-06T07:13:59;95240.25;;;6.21;53.79
2000;BME280;1001;48.87406500;9.59633600;2023-04-06T07:16:26;95244.63;;;6.21;52.05
2000;BME280;1001;48.87406500;9.59633600;2023-04-06T07:18:53;95249.81;;;6.27;51.40
2000;BME280;1001;48.87406500;9.59633600;2023-04-06T07:21:19;95238.88;;;6.45;51.43
2000;BME280;1001;48.87406500;9.59633600;2023-04-06T07:23:47;95252.66;;;6.52;50.77
2000;BME280;1001;48.87406500;9.59633600;2023-04-06T07:26:16;95253.06;;;6.55;51.40
2000;BME280;1001;48.87406500;9.59633600;2023-04-06T07:28:42;95251.84;;;6.91;49.93
2000;BME280;1001;48.87406500;9.59633600;2023-04-06T07:31:09;95254.81;;;6.94;49.60
2000;BME280;1001;48.87406500;9.59633600;2023-04-06T07:33:36;95256.22;;;7.03;50.62
2000;BME280;1001;48.87406500;9.59633600;2023-04-06T07:36:03;95261.41;;;7.16;49.92
2000;BME280;1001;48.87406500;9.59633600;2023-04-06T07:38:29;95261.31;;;7.36;48.81
2000;BME280;1001;48.87406500;9.59633600;2023-04-06T07:40:57;95258.09;;;7.53;48.99
2000;BME280;1001;48.87406500;9.59633600;2023-04-06T07:43:24;95254.81;;;7.71;48.81
2000;BME280;1001;48.87406500;9.59633600;2023-04-06T07:45:51;95254.53;;;7.86;47.43
2000;BME280;1001;48.87406500;9.59633600;2023-04-06T07:48:18;95257.13;;;7.86;48.45
2000;BME280;1001;48.87406500;9.59633600;2023-04-06T07:50:45;95264.84;;;8.05;47.15
2000;BME280;1001;48.87406500;9.59633600;2023-04-06T07:53:12;95260.38;;;8.50;46.95
2000;BME280;1001;48.87406500;9.59633600;2023-04-06T07:55:38;95266.00;;;8.47;44.87
2000;BME280;1001;48.87406500;9.59633600;2023-04-06T07:58:06;95254.06;;;8.64;47.55
2000;BME280;1001;48.87406500;9.59633600;2023-04-06T08:00:33;95257.06;;;8.68;45.66
2000;BME280;1001;48.87406500;9.59633600;2023-04-06T08:03:00;95268.41;;;8.98;46.25
2000;BME280;1001;48.87406500;9.59633600;2023-04-06T08:05:27;95263.53;;;9.08;44.86
2000;BME280;1001;48.87406500;9.59633600;2023-04-06T08:07:53;95260.84;;;9.33;44.67
2000;BME280;1001;48.87406500;9.59633600;2023-04-06T08:10:20;95269.94;;;9.48;46.45
2000;BME280;1001;48.87406500;9.59633600;2023-04-06T08:12:47;95264.25;;;9.51;45.52
2000;BME280;1001;48.87406500;9.59633600;2023-04-06T08:15:15;95266.16;;;9.63;45.19
2000;BME280;1001;48.87406500;9.59633600;2023-04-06T08:17:43;95258.53;;;9.79;45.69
2000;BME280;1001;48.87406500;9.59633600;2023-04-06T08:20:10;95265.91;;;10.00;45.02
2000;BME280;1001;48.87406500;9.59633600;2023-04-06T08:22:37;95266.44;;;9.73;44.42
2000;BME280;1001;48.87406500;9.59633600;2023-04-06T08:25:06;95267.38;;;9.78;44.53
2000;BME280;1001;48.87406500;9.59633600;2023-04-06T08:27:32;95267.56;;;9.95;43.18
2000;BME280;1001;48.87406500;9.59633600;2023-04-06T08:29:59;95270.91;;;10.02;43.06
2000;BME280;1001;48.87406500;9.59633600;2023-04-06T08:32:28;95268.47;;;9.34;43.24
2000;BME280;1001;48.87406500;9.59633600;2023-04-06T08:34:55;95268.97;;;9.79;46.78
2000;BME280;1001;48.87406500;9.59633600;2023-04-06T08:37:22;95265.75;;;10.13;44.55
2000;BME280;1001;48.87406500;9.59633600;2023-04-06T08:39:48;95268.53;;;10.30;42.96
2000;BME280;1001;48.87406500;9.59633600;2023-04-06T08:42:19;95277.34;;;10.17;44.81
2000;BME280;1001;48.87406500;9.59633600;2023-04-06T08:44:47;95274.72;;;10.17;44.56
2000;BME280;1001;48.87406500;9.59633600;2023-04-06T08:47:15;95276.94;;;10.32;45.13
2000;BME280;1001;48.87406500;9.59633600;2023-04-06T08:49:44;95280.34;;;10.62;43.61
2000;BME280;1001;48.87406500;9.59633600;2023-04-06T08:52:12;95262.91;;;10.56;44.30
2000;BME280;1001;48.87406500;9.59633600;2023-04-06T08:54:39;95266.22;;;10.52;41.96
2000;BME280;1001;48.87406500;9.59633600;2023-04-06T08:57:07;95280.81;;;10.82;41.85
2000;BME280;1001;48.87406500;9.59633600;2023-04-06T08:59:34;95275.81;;;10.69;44.35
2000;BME280;1001;48.87406500;9.59633600;2023-04-06T09:02:03;95273.09;;;10.76;41.59
2000;BME280;1001;48.87406500;9.59633600;2023-04-06T09:04:31;95270.81;;;10.91;40.33
2000;BME280;1001;48.87406500;9.59633600;2023-04-06T09:07:00;95265.81;;;10.89;40.28
2000;BME280;1001;48.87406500;9.59633600;2023-04-06T09:09:27;95269.13;;;10.97;43.14
2000;BME280;1001;48.87406500;9.59633600;2023-04-06T09:11:53;95271.63;;;10.91;40.43
2000;BME280;1001;48.87406500;9.59633600;2023-04-06T09:14:33;95261.75;;;11.17;40.13
2000;BME280;1001;48.87406500;9.59633600;2023-04-06T09:17:00;95261.38;;;11.13;39.91
2000;BME280;1001;48.87406500;9.59633600;2023-04-06T09:19:27;95257.72;;;10.91;40.83
2000;BME280;1001;48.87406500;9.59633600;2023-04-06T09:22:03;95258.53;;;11.03;42.90
2000;BME280;1001;48.87406500;9.59633600;2023-04-06T09:24:40;95255.84;;;11.10;41.80
2000;BME280;1001;48.87406500;9.59633600;2023-04-06T09:27:06;95262.88;;;10.98;42.60
2000;BME280;1001;48.87406500;9.59633600;2023-04-06T09:29:33;95255.25;;;11.08;39.15
2000;BME280;1001;48.87406500;9.59633600;2023-04-06T09:32:03;95261.34;;;11.48;39.65
2000;BME280;1001;48.87406500;9.59633600;2023-04-06T09:34:33;95258.66;;;11.31;40.50
2000;BME280;1001;48.87406500;9.59633600;2023-04-06T09:37:01;95263.69;;;11.21;39.04
2000;BME280;1001;48.87406500;9.59633600;2023-04-06T09:39:38;95260.47;;;11.08;38.53
2000;BME280;1001;48.87406500;9.59633600;2023-04-06T09:42:04;95257.28;;;11.06;37.63
2000;BME280;1001;48.87406500;9.59633600;2023-04-06T09:44:31;95252.28;;;10.92;38.81
2000;BME280;1001;48.87406500;9.59633600;2023-04-06T09:46:58;95261.16;;;10.91;39.00
2000;BME280;1001;48.87406500;9.59633600;2023-04-06T09:49:26;95250.91;;;10.67;38.09
2000;BME280;1001;48.87406500;9.59633600;2023-04-06T09:51:56;95244.28;;;10.53;38.47
2000;BME280;1001;48.87406500;9.59633600;2023-04-06T09:54:28;95249.53;;;10.64;38.29
2000;BME280;1001;48.87406500;9.59633600;2023-04-06T09:56:58;95246.25;;;10.69;40.57
2000;BME280;1001;48.87406500;9.59633600;2023-04-06T09:59:33;95247.88;;;10.40;40.83
2000;BME280;1001;48.87406500;9.59633600;2023-04-06T10:02:05;95249.75;;;10.03;38.58
2000;BME280;1001;48.87406500;9.59633600;2023-04-06T10:04:37;95240.56;;;10.01;38.81
2000;BME280;1001;48.87406500;9.59633600;2023-04-06T10:07:06;95230.56;;;9.98;39.77
2000;BME280;1001;48.87406500;9.59633600;2023-04-06T10:09:37;95245.56;;;10.02;38.62
2000;BME280;1001;48.87406500;9.59633600;2023-04-06T10:12:05;95228.06;;;10.21;41.17
2000;BME280;1001;48.87406500;9.59633600;2023-04-06T10:14:33;95225.06;;;9.88;39.17
2000;BME280;1001;48.87406500;9.59633600;2023-04-06T10:17:01;95235.97;;;10.56;40.18
2000;BME280;1001;48.87406500;9.59633600;2023-04-06T10:19:34;95227.94;;;11.04;41.86
2000;BME280;1001;48.87406500;9.59633600;2023-04-06T10:22:04;95231.22;;;11.34;38.13
2000;BME280;1001;48.87406500;9.59633600;2023-04-06T10:24:31;95234.06;;;11.44;38.70
2000;BME280;1001;48.87406500;9.59633600;2023-04-06T10:27:02;95238.28;;;11.22;37.87
2000;BME280;1001;48.87406500;9.59633600;2023-04-06T10:29:42;95232.59;;;11.02;38.35
2000;BME280;1001;48.87406500;9.59633600;2023-04-06T10:32:09;95236.47;;;11.11;37.42
2000;BME280;1001;48.87406500;9.59633600;2023-04-06T10:34:37;95233.84;;;11.11;36.34
2000;BME280;1001;48.87406500;9.59633600;2023-04-06T10:37:14;95234.41;;;11.13;38.88
2000;BME280;1001;48.87406500;9.59633600;2023-04-06T10:39:47;95236.66;;;11.44;41.19
2000;BME280;1001;48.87406500;9.59633600;2023-04-06T10:42:15;95231.91;;;11.29;41.21
2000;BME280;1001;48.87406500;9.59633600;2023-04-06T10:44:43;95235.75;;;11.38;39.71
2000;BME280;1001;48.87406500;9.59633600;2023-04-06T10:47:15;95238.06;;;11.12;38.32
2000;BME280;1001;48.87406500;9.59633600;2023-04-06T10:49:43;95238.38;;;11.27;39.02
2000;BME280;1001;48.87406500;9.59633600;2023-04-06T10:52:09;95236.25;;;11.35;38.64
2000;BME280;1001;48.87406500;9.59633600;2023-04-06T10:54:42;95230.31;;;11.40;42.44
2000;BME280;1001;48.87406500;9.59633600;2023-04-06T10:57:09;95238.50;;;11.20;38.74
2000;BME280;1001;48.87406500;9.59633600;2023-04-06T10:59:44;95234.06;;;11.44;37.74
2000;BME280;1001;48.87406500;9.59633600;2023-04-06T11:02:19;95241.38;;;11.30;38.65
2000;BME280;1001;48.87406500;9.59633600;2023-04-06T11:04:54;95235.75;;;11.38;36.08
2000;BME280;1001;48.87406500;9.59633600;2023-04-06T11:07:23;95229.00;;;11.66;37.11
2000;BME280;1001;48.87406500;9.59633600;2023-04-06T11:09:50;95228.94;;;11.37;34.96
2000;BME280;1001;48.87406500;9.59633600;2023-04-06T11:12:21;95228.34;;;11.58;38.29
2000;BME280;1001;48.87406500;9.59633600;2023-04-06T11:14:54;95221.16;;;11.66;38.71
2000;BME280;1001;48.87406500;9.59633600;2023-04-06T11:17:25;95222.81;;;11.83;37.02
2000;BME280;1001;48.87406500;9.59633600;2023-04-06T11:19:55;95217.34;;;12.13;37.54
2000;BME280;1001;48.87406500;9.59633600;2023-04-06T11:22:22;95216.47;;;12.07;37.84
2000;BME280;1001;48.87406500;9.59633600;2023-04-06T11:24:49;95209.94;;;12.10;36.50
2000;BME280;1001;48.87406500;9.59633600;2023-04-06T11:27:17;95218.31;;;12.23;35.94
2000;BME280;1001;48.87406500;9.59633600;2023-04-06T11:29:44;95212.78;;;11.92;35.39
2000;BME280;1001;48.87406500;9.59633600;2023-04-06T11:32:20;95219.22;;;11.73;35.08
2000;BME280;1001;48.87406500;9.59633600;2023-04-06T11:34:48;95210.25;;;11.97;37.08
2000;BME280;1001;48.87406500;9.59633600;2023-04-06T11:37:14;95209.94;;;12.10;38.53
2000;BME280;1001;48.87406500;9.59633600;2023-04-06T11:39:47;95211.44;;;12.34;35.97
2000;BME280;1001;48.87406500;9.59633600;2023-04-06T11:42:21;95204.44;;;12.23;37.72
2000;BME280;1001;48.87406500;9.59633600;2023-04-06T11:44:50;95205.16;;;12.07;36.84
2000;BME280;1001;48.87406500;9.59633600;2023-04-06T11:47:19;95202.34;;;11.80;34.90
2000;BME280;1001;48.87406500;9.59633600;2023-04-06T11:49:47;95202.56;;;12.07;35.56
2000;BME280;1001;48.87406500;9.59633600;2023-04-06T11:52:16;95190.59;;;12.11;35.34